Riggs, Missouri
Current Conditions -  °F | °C
As of 3:54 AM on Monday 22 Dec 2014 (Local Time) from KCOU Reporting Station
Light Rain Light Rain  
Wind Chill: 33°   Ceiling: 3100
Heat Index: 40°   Visibility: 10mi
Dew Point: 36°   Wind: 12mph
Humidity: 86%   Direction: 110°ESE
Pressure: 29.74"   Gusts: NA
Location:  39.1933°N, 92.305°W
Report Text: KCOU 220954Z AUTO 11010KT 10SM -RA BKN031 OVC041 04/02 A2974 RMK AO2 RAB0857 SLP074 P0001 T00440022
Loading
Personal Weather Stations






























Interactive Weather Map New forecast layout! Learn more

10-Day Weather Forecast

Advertisements
Track Severe Weather on mobile